sensor_id;sensor_type;location;lat;lon;timestamp;pressure;altitude;pressure_sealevel;temperature;humidity
74678;BME280;67324;56.326;43.982;2023-02-28T00:00:33;100648.78;;;21.42;30.83
74678;BME280;67324;56.326;43.982;2023-02-28T00:02:59;100651.41;;;21.42;30.93
74678;BME280;67324;56.326;43.982;2023-02-28T00:05:27;100648.78;;;21.42;30.85
74678;BME280;67324;56.326;43.982;2023-02-28T00:07:53;100646.16;;;21.42;30.86
74678;BME280;67324;56.326;43.982;2023-02-28T00:10:23;100638.25;;;21.42;30.90
74678;BME280;67324;56.326;43.982;2023-02-28T00:12:53;100649.75;;;21.41;30.87
74678;BME280;67324;56.326;43.982;2023-02-28T00:15:20;100654.06;;;21.42;30.82
74678;BME280;67324;56.326;43.982;2023-02-28T00:17:46;100645.34;;;21.42;30.82
74678;BME280;67324;56.326;43.982;2023-02-28T00:20:13;100655.00;;;21.41;30.92
74678;BME280;67324;56.326;43.982;2023-02-28T00:22:41;100641.84;;;21.41;30.81
74678;BME280;67324;56.326;43.982;2023-02-28T00:25:09;100647.13;;;21.41;30.74
74678;BME280;67324;56.326;43.982;2023-02-28T00:27:36;100641.84;;;21.41;30.89
74678;BME280;67324;56.326;43.982;2023-02-28T00:30:04;100634.81;;;21.42;30.73
74678;BME280;67324;56.326;43.982;2023-02-28T00:32:32;100624.28;;;21.42;30.78
74678;BME280;67324;56.326;43.982;2023-02-28T00:34:58;100626.06;;;21.41;30.90
74678;BME280;67324;56.326;43.982;2023-02-28T00:37:23;100624.41;;;21.40;30.74
74678;BME280;67324;56.326;43.982;2023-02-28T00:39:49;100620.81;;;21.41;30.74
74678;BME280;67324;56.326;43.982;2023-02-28T00:42:15;100602.56;;;21.40;30.78
74678;BME280;67324;56.326;43.982;2023-02-28T00:44:41;100610.28;;;21.41;30.76
74678;BME280;67324;56.326;43.982;2023-02-28T00:47:07;100606.00;;;21.40;30.82
74678;BME280;67324;56.326;43.982;2023-02-28T00:49:33;100612.91;;;21.41;30.73
74678;BME280;67324;56.326;43.982;2023-02-28T00:51:59;100596.28;;;21.41;30.92
74678;BME280;67324;56.326;43.982;2023-02-28T00:54:25;100591.03;;;21.41;30.77
74678;BME280;67324;56.326;43.982;2023-02-28T00:56:51;100580.69;;;21.39;30.70
74678;BME280;67324;56.326;43.982;2023-02-28T00:59:18;100584.94;;;21.40;30.89
74678;BME280;67324;56.326;43.982;2023-02-28T01:01:45;100576.22;;;21.40;30.80
74678;BME280;67324;56.326;43.982;2023-02-28T01:04:12;100579.69;;;21.40;30.82
74678;BME280;67324;56.326;43.982;2023-02-28T01:06:38;100574.44;;;21.40;30.73
74678;BME280;67324;56.326;43.982;2023-02-28T01:09:05;100577.06;;;21.40;30.75
74678;BME280;67324;56.326;43.982;2023-02-28T01:11:32;100566.53;;;21.40;30.81
74678;BME280;67324;56.326;43.982;2023-02-28T01:13:58;100556.00;;;21.40;30.81
74678;BME280;67324;56.326;43.982;2023-02-28T01:16:25;100557.66;;;21.41;30.77
74678;BME280;67324;56.326;43.982;2023-02-28T01:18:51;100543.84;;;21.39;30.82
74678;BME280;67324;56.326;43.982;2023-02-28T01:21:18;100545.63;;;21.39;30.75
74678;BME280;67324;56.326;43.982;2023-02-28T01:23:45;100546.47;;;21.39;30.61
74678;BME280;67324;56.326;43.982;2023-02-28T01:26:15;100545.47;;;21.40;30.71
74678;BME280;67324;56.326;43.982;2023-02-28T01:28:41;100547.28;;;21.40;30.71
74678;BME280;67324;56.326;43.982;2023-02-28T01:31:26;100543.94;;;21.38;30.81
74678;BME280;67324;56.326;43.982;2023-02-28T01:33:52;100542.03;;;21.40;30.70
74678;BME280;67324;56.326;43.982;2023-02-28T01:36:21;100541.22;;;21.39;30.69
74678;BME280;67324;56.326;43.982;2023-02-28T01:38:49;100543.84;;;21.39;30.67
74678;BME280;67324;56.326;43.982;2023-02-28T01:41:24;100539.41;;;21.40;30.69
74678;BME280;67324;56.326;43.982;2023-02-28T01:44:03;100537.72;;;21.39;30.74
74678;BME280;67324;56.326;43.982;2023-02-28T01:46:34;100535.94;;;21.39;30.58
74678;BME280;67324;56.326;43.982;2023-02-28T01:49:13;100535.94;;;21.39;30.83
74678;BME280;67324;56.326;43.982;2023-02-28T01:51:50;100532.47;;;21.39;30.62
74678;BME280;67324;56.326;43.982;2023-02-28T01:54:36;100538.56;;;21.39;30.75
74678;BME280;67324;56.326;43.982;2023-02-28T01:57:15;100529.84;;;21.39;30.61
74678;BME280;67324;56.326;43.982;2023-02-28T02:00:16;100515.81;;;21.38;30.62
74678;BME280;67324;56.326;43.982;2023-02-28T02:02:47;100516.81;;;21.37;30.80
74678;BME280;67324;56.326;43.982;2023-02-28T02:05:20;100505.28;;;21.38;30.70
74678;BME280;67324;56.326;43.982;2023-02-28T02:07:50;100493.94;;;21.38;30.70
74678;BME280;67324;56.326;43.982;2023-02-28T02:10:27;100489.50;;;21.38;30.61
74678;BME280;67324;56.326;43.982;2023-02-28T02:24:58;100476.53;;;21.37;30.65
74678;BME280;67324;56.326;43.982;2023-02-28T02:27:48;100460.75;;;21.37;30.46
74678;BME280;67324;56.326;43.982;2023-02-28T02:36:51;100444.94;;;21.37;30.68
74678;BME280;67324;56.326;43.982;2023-02-28T02:39:28;100444.09;;;21.36;30.53
74678;BME280;67324;56.326;43.982;2023-02-28T02:41:59;100444.09;;;21.36;30.58
74678;BME280;67324;56.326;43.982;2023-02-28T02:44:52;100440.50;;;21.37;30.62
74678;BME280;67324;56.326;43.982;2023-02-28T02:47:19;100432.63;;;21.37;30.62
74678;BME280;67324;56.326;43.982;2023-02-28T02:49:51;100429.97;;;21.37;30.65
74678;BME280;67324;56.326;43.982;2023-02-28T02:52:22;100411.56;;;21.37;30.62
74678;BME280;67324;56.326;43.982;2023-02-28T02:54:50;100410.75;;;21.37;30.64
74678;BME280;67324;56.326;43.982;2023-02-28T02:57:50;100403.81;;;21.36;30.62
74678;BME280;67324;56.326;43.982;2023-02-28T03:00:21;100390.66;;;21.36;30.56
74678;BME280;67324;56.326;43.982;2023-02-28T03:02:49;100389.69;;;21.37;30.64
74678;BME280;67324;56.326;43.982;2023-02-28T03:05:22;100370.44;;;21.36;30.50
74678;BME280;67324;56.326;43.982;2023-02-28T03:07:49;100356.31;;;21.37;30.64
74678;BME280;67324;56.326;43.982;2023-02-28T03:10:30;100348.56;;;21.36;30.64
74678;BME280;67324;56.326;43.982;2023-02-28T03:18:29;100329.19;;;21.37;30.50
74678;BME280;67324;56.326;43.982;2023-02-28T03:26:04;100287.38;;;21.34;30.57
74678;BME280;67324;56.326;43.982;2023-02-28T03:29:02;100276.69;;;21.35;30.53
74678;BME280;67324;56.326;43.982;2023-02-28T03:31:43;100280.16;;;21.36;30.48
74678;BME280;67324;56.326;43.982;2023-02-28T03:34:11;100268.81;;;21.35;30.55
74678;BME280;67324;56.326;43.982;2023-02-28T03:36:44;100268.81;;;21.35;30.64
74678;BME280;67324;56.326;43.982;2023-02-28T03:39:16;100269.63;;;21.36;30.45
74678;BME280;67324;56.326;43.982;2023-02-28T03:41:53;100270.44;;;21.36;30.41
74678;BME280;67324;56.326;43.982;2023-02-28T03:44:30;100268.66;;;21.37;30.46
74678;BME280;67324;56.326;43.982;2023-02-28T03:49:53;100262.56;;;21.36;30.49
74678;BME280;67324;56.326;43.982;2023-02-28T03:52:22;100252.22;;;21.35;30.59
74678;BME280;67324;56.326;43.982;2023-02-28T03:54:53;100247.75;;;21.35;30.62
74678;BME280;67324;56.326;43.982;2023-02-28T04:00:27;100231.16;;;21.35;30.50
74678;BME280;67324;56.326;43.982;2023-02-28T04:02:55;100229.19;;;21.37;30.35
74678;BME280;67324;56.326;43.982;2023-02-28T04:05:22;100214.38;;;21.36;30.44
74678;BME280;67324;56.326;43.982;2023-02-28T04:07:48;100203.03;;;21.35;30.49
74678;BME280;67324;56.326;43.982;2023-02-28T04:10:15;100192.50;;;21.35;30.41
74678;BME280;67324;56.326;43.982;2023-02-28T04:12:41;100187.09;;;21.37;30.53
74678;BME280;67324;56.326;43.982;2023-02-28T04:15:07;100175.91;;;21.35;30.42
74678;BME280;67324;56.326;43.982;2023-02-28T04:17:33;100169.66;;;21.36;30.59
74678;BME280;67324;56.326;43.982;2023-02-28T04:19:59;100165.19;;;21.36;30.46
74678;BME280;67324;56.326;43.982;2023-02-28T04:22:25;100155.69;;;21.35;30.43
74678;BME280;67324;56.326;43.982;2023-02-28T04:24:54;100151.22;;;21.36;30.39
74678;BME280;67324;56.326;43.982;2023-02-28T04:27:21;100134.47;;;21.37;30.48
74678;BME280;67324;56.326;43.982;2023-02-28T04:29:46;100126.75;;;21.35;30.43
74678;BME280;67324;56.326;43.982;2023-02-28T04:32:13;100112.75;;;21.35;30.39
74678;BME280;67324;56.326;43.982;2023-02-28T04:34:39;100109.94;;;21.36;30.49
74678;BME280;67324;56.326;43.982;2023-02-28T04:37:05;100117.84;;;21.36;30.32
74678;BME280;67324;56.326;43.982;2023-02-28T04:39:35;100112.59;;;21.36;30.40
74678;BME280;67324;56.326;43.982;2023-02-28T04:42:02;100103.88;;;21.36;30.31
74678;BME280;67324;56.326;43.982;2023-02-28T04:44:27;100102.91;;;21.37;30.31
74678;BME280;67324;56.326;43.982;2023-02-28T04:46:53;100093.34;;;21.36;30.31
74678;BME280;67324;56.326;43.982;2023-02-28T04:49:19;100114.25;;;21.37;30.36
74678;BME280;67324;56.326;43.982;2023-02-28T04:51:45;100100.28;;;21.37;30.49
74678;BME280;67324;56.326;43.982;2023-02-28T04:54:11;100095.00;;;21.37;30.41
74678;BME280;67324;56.326;43.982;2023-02-28T04:56:38;100101.25;;;21.36;30.28
74678;BME280;67324;56.326;43.982;2023-02-28T04:59:04;100097.66;;;21.37;30.38
74678;BME280;67324;56.326;43.982;2023-02-28T05:01:49;100108.97;;;21.37;30.36
74678;BME280;67324;56.326;43.982;2023-02-28T05:04:15;100096.66;;;21.38;30.28
74678;BME280;67324;56.326;43.982;2023-02-28T05:06:40;100103.72;;;21.37;30.35
74678;BME280;67324;56.326;43.982;2023-02-28T05:09:06;100101.09;;;21.37;30.22
74678;BME280;67324;56.326;43.982;2023-02-28T05:11:33;100094.00;;;21.38;30.40
74678;BME280;67324;56.326;43.982;2023-02-28T05:14:04;100093.19;;;21.37;30.38
74678;BME280;67324;56.326;43.982;2023-02-28T05:16:31;100074.78;;;21.37;30.41
74678;BME280;67324;56.326;43.982;2023-02-28T05:18:57;100066.88;;;21.37;30.33
74678;BME280;67324;56.326;43.982;2023-02-28T05:21:38;100064.25;;;21.37;30.25
74678;BME280;67324;56.326;43.982;2023-02-28T05:24:06;100072.00;;;21.39;30.35
74678;BME280;67324;56.326;43.982;2023-02-28T05:26:53;100053.72;;;21.37;30.30
74678;BME280;67324;56.326;43.982;2023-02-28T05:29:19;100035.31;;;21.37;30.23
74678;BME280;67324;56.326;43.982;2023-02-28T05:31:45;100038.75;;;21.38;30.15
74678;BME280;67324;56.326;43.982;2023-02-28T05:34:10;100016.91;;;21.37;30.21
74678;BME280;67324;56.326;43.982;2023-02-28T05:36:38;100005.38;;;21.38;30.44
74678;BME280;67324;56.326;43.982;2023-02-28T05:39:06;99996.66;;;21.38;30.18
74678;BME280;67324;56.326;43.982;2023-02-28T05:41:32;100001.13;;;21.37;30.33
74678;BME280;67324;56.326;43.982;2023-02-28T05:44:17;99987.16;;;21.37;30.29
74678;BME280;67324;56.326;43.982;2023-02-28T05:46:43;99982.69;;;21.37;30.28
74678;BME280;67324;56.326;43.982;2023-02-28T05:49:09;99970.34;;;21.38;30.26
74678;BME280;67324;56.326;43.982;2023-02-28T05:51:34;99956.38;;;21.37;30.32
74678;BME280;67324;56.326;43.982;2023-02-28T05:54:01;99951.94;;;21.38;30.19
74678;BME280;67324;56.326;43.982;2023-02-28T05:56:28;99951.13;;;21.37;30.30
74678;BME280;67324;56.326;43.982;2023-02-28T05:58:54;99941.41;;;21.38;30.15
74678;BME280;67324;56.326;43.982;2023-02-28T06:01:30;99934.34;;;21.38;30.17
74678;BME280;67324;56.326;43.982;2023-02-28T06:03:56;99936.03;;;21.39;30.14
74678;BME280;67324;56.326;43.982;2023-02-28T06:06:23;99920.38;;;21.38;30.19
74678;BME280;67324;56.326;43.982;2023-02-28T06:08:49;99925.63;;;21.38;30.19
74678;BME280;67324;56.326;43.982;2023-02-28T06:11:14;99915.09;;;21.38;30.29
74678;BME280;67324;56.326;43.982;2023-02-28T06:13:40;99897.50;;;21.38;30.14
74678;BME280;67324;56.326;43.982;2023-02-28T06:16:08;99887.81;;;21.39;30.26
74678;BME280;67324;56.326;43.982;2023-02-28T06:18:35;99886.03;;;21.39;30.27
74678;BME280;67324;56.326;43.982;2023-02-28T06:21:02;99884.34;;;21.38;30.13
74678;BME280;67324;56.326;43.982;2023-02-28T06:23:27;99865.00;;;21.39;30.17
74678;BME280;67324;56.326;43.982;2023-02-28T06:25:53;99862.50;;;21.38;30.22
74678;BME280;67324;56.326;43.982;2023-02-28T06:28:23;99852.66;;;21.40;30.17
74678;BME280;67324;56.326;43.982;2023-02-28T06:30:48;99842.94;;;21.40;30.11
74678;BME280;67324;56.326;43.982;2023-02-28T06:33:14;99838.69;;;21.39;30.12
74678;BME280;67324;56.326;43.982;2023-02-28T06:35:44;99844.75;;;21.40;30.19
74678;BME280;67324;56.326;43.982;2023-02-28T06:38:10;99814.16;;;21.39;30.10
74678;BME280;67324;56.326;43.982;2023-02-28T06:40:36;99811.38;;;21.40;30.09
74678;BME280;67324;56.326;43.982;2023-02-28T06:43:02;99806.25;;;21.39;30.14
74678;BME280;67324;56.326;43.982;2023-02-28T06:45:29;99793.13;;;21.39;30.05
74678;BME280;67324;56.326;43.982;2023-02-28T06:47:54;99787.69;;;21.40;30.10
74678;BME280;67324;56.326;43.982;2023-02-28T06:50:20;99765.97;;;21.38;30.18
74678;BME280;67324;56.326;43.982;2023-02-28T06:52:47;99758.75;;;21.40;30.14
74678;BME280;67324;56.326;43.982;2023-02-28T06:55:13;99761.53;;;21.39;30.14
74678;BME280;67324;56.326;43.982;2023-02-28T06:57:38;99761.38;;;21.40;30.12
74678;BME280;67324;56.326;43.982;2023-02-28T07:00:07;99754.31;;;21.41;30.15
74678;BME280;67324;56.326;43.982;2023-02-28T07:02:35;99744.78;;;21.40;30.13
74678;BME280;67324;56.326;43.982;2023-02-28T07:05:01;99724.53;;;21.40;30.19
74678;BME280;67324;56.326;43.982;2023-02-28T07:07:45;99729.00;;;21.40;30.17
74678;BME280;67324;56.326;43.982;2023-02-28T07:10:36;99722.91;;;21.39;30.08
74678;BME280;67324;56.326;43.982;2023-02-28T07:13:03;99722.91;;;21.39;30.13
74678;BME280;67324;56.326;43.982;2023-02-28T07:15:29;99702.69;;;21.40;30.23
74678;BME280;67324;56.326;43.982;2023-02-28T07:17:55;99693.97;;;21.39;30.05
74678;BME280;67324;56.326;43.982;2023-02-28T07:20:22;99695.59;;;21.40;30.08
74678;BME280;67324;56.326;43.982;2023-02-28T07:22:49;99700.06;;;21.40;30.14
74678;BME280;67324;56.326;43.982;2023-02-28T07:25:24;99685.91;;;21.41;30.04
74678;BME280;67324;56.326;43.982;2023-02-28T07:27:50;99693.78;;;21.41;30.12
74678;BME280;67324;56.326;43.982;2023-02-28T07:30:16;99691.97;;;21.41;30.05
74678;BME280;67324;56.326;43.982;2023-02-28T07:32:42;99678.81;;;21.41;30.08
74678;BME280;67324;56.326;43.982;2023-02-28T07:35:08;99669.13;;;21.42;30.10
74678;BME280;67324;56.326;43.982;2023-02-28T07:37:34;99662.22;;;21.41;30.10
74678;BME280;67324;56.326;43.982;2023-02-28T07:40:05;99655.78;;;21.43;30.04
74678;BME280;67324;56.326;43.982;2023-02-28T07:42:52;99638.53;;;21.41;30.16
74678;BME280;67324;56.326;43.982;2023-02-28T07:45:37;99645.25;;;21.43;30.10
74678;BME280;67324;56.326;43.982;2023-02-28T07:48:03;99640.81;;;21.44;30.15
74678;BME280;67324;56.326;43.982;2023-02-28T07:50:29;99631.47;;;21.41;30.02
74678;BME280;67324;56.326;43.982;2023-02-28T07:52:58;99625.22;;;21.42;30.06
74678;BME280;67324;56.326;43.982;2023-02-28T07:55:23;99632.91;;;21.44;30.16
74678;BME280;67324;56.326;43.982;2023-02-28T07:57:49;99618.94;;;21.43;30.12
74678;BME280;67324;56.326;43.982;2023-02-28T08:00:15;99626.84;;;21.43;30.17
74678;BME280;67324;56.326;43.982;2023-02-28T08:02:41;99619.75;;;21.44;30.07
74678;BME280;67324;56.326;43.982;2023-02-28T08:05:08;99622.59;;;21.42;29.98
74678;BME280;67324;56.326;43.982;2023-02-28T08:07:34;99628.50;;;21.44;30.08
74678;BME280;67324;56.326;43.982;2023-02-28T08:10:00;99626.84;;;21.43;30.14
74678;BME280;67324;56.326;43.982;2023-02-28T08:12:26;99624.88;;;21.45;29.97
74678;BME280;67324;56.326;43.982;2023-02-28T08:14:51;99629.31;;;21.45;30.09
74678;BME280;67324;56.326;43.982;2023-02-28T08:17:17;99630.28;;;21.44;30.07
74678;BME280;67324;56.326;43.982;2023-02-28T08:19:46;99638.03;;;21.45;30.09
74678;BME280;67324;56.326;43.982;2023-02-28T08:22:12;99644.09;;;21.46;30.01
74678;BME280;67324;56.326;43.982;2023-02-28T08:24:38;99639.84;;;21.45;30.06
74678;BME280;67324;56.326;43.982;2023-02-28T08:27:04;99642.47;;;21.45;30.06
74678;BME280;67324;56.326;43.982;2023-02-28T08:29:30;99630.78;;;21.47;30.04
74678;BME280;67324;56.326;43.982;2023-02-28T08:31:56;99618.78;;;21.45;30.10
74678;BME280;67324;56.326;43.982;2023-02-28T08:34:22;99631.75;;;21.46;30.09
74678;BME280;67324;56.326;43.982;2023-02-28T08:36:48;99629.31;;;21.45;30.08
74678;BME280;67324;56.326;43.982;2023-02-28T08:39:36;99639.84;;;21.45;30.06
74678;BME280;67324;56.326;43.982;2023-02-28T08:42:02;99619.59;;;21.45;29.98
74678;BME280;67324;56.326;43.982;2023-02-28T08:44:28;99629.13;;;21.46;29.99
74678;BME280;67324;56.326;43.982;2023-02-28T08:46:54;99621.41;;;21.45;30.09
74678;BME280;67324;56.326;43.982;2023-02-28T08:49:39;99616.31;;;21.43;30.09
74678;BME280;67324;56.326;43.982;2023-02-28T08:52:05;99620.78;;;21.43;30.12
74678;BME280;67324;56.326;43.982;2023-02-28T08:54:50;99610.09;;;21.44;30.06
74678;BME280;67324;56.326;43.982;2023-02-28T08:57:16;99614.34;;;21.45;30.16
74678;BME280;67324;56.326;43.982;2023-02-28T08:59:41;99607.25;;;21.46;30.06
74678;BME280;67324;56.326;43.982;2023-02-28T09:02:09;99603.00;;;21.45;30.20
74678;BME280;67324;56.326;43.982;2023-02-28T09:04:35;99596.94;;;21.44;30.08
74678;BME280;67324;56.326;43.982;2023-02-28T09:07:01;99590.66;;;21.45;30.04
74678;BME280;67324;56.326;43.982;2023-02-28T09:09:27;99590.66;;;21.45;30.05
74678;BME280;67324;56.326;43.982;2023-02-28T09:12:11;99580.94;;;21.46;30.08
74678;BME280;67324;56.326;43.982;2023-02-28T09:14:37;99588.03;;;21.45;30.16
74678;BME280;67324;56.326;43.982;2023-02-28T09:17:03;99595.75;;;21.47;30.14
74678;BME280;67324;56.326;43.982;2023-02-28T09:19:29;99603.16;;;21.43;30.01
74678;BME280;67324;56.326;43.982;2023-02-28T09:21:55;99597.75;;;21.45;30.05
74678;BME280;67324;56.326;43.982;2023-02-28T09:24:21;99594.75;;;21.48;30.17
74678;BME280;67324;56.326;43.982;2023-02-28T09:26:47;99596.56;;;21.47;30.01
74678;BME280;67324;56.326;43.982;2023-02-28T10:20:50;99571.22;;;21.46;30.12
74678;BME280;67324;56.326;43.982;2023-02-28T10:23:34;99557.25;;;21.46;30.08
74678;BME280;67324;56.326;43.982;2023-02-28T10:26:10;99550.19;;;21.46;30.14
74678;BME280;67324;56.326;43.982;2023-02-28T10:28:39;99557.09;;;21.47;30.13
74678;BME280;67324;56.326;43.982;2023-02-28T10:31:19;99552.00;;;21.46;29.97
74678;BME280;67324;56.326;43.982;2023-02-28T10:33:45;99546.75;;;21.46;30.06
74678;BME280;67324;56.326;43.982;2023-02-28T10:36:20;99546.75;;;21.46;30.04
74678;BME280;67324;56.326;43.982;2023-02-28T10:38:47;99543.31;;;21.45;30.10
74678;BME280;67324;56.326;43.982;2023-02-28T10:41:18;99535.41;;;21.45;30.08
74678;BME280;67324;56.326;43.982;2023-02-28T10:44:20;99538.03;;;21.45;30.00
74678;BME280;67324;56.326;43.982;2023-02-28T10:47:02;99534.59;;;21.45;30.05
74678;BME280;67324;56.326;43.982;2023-02-28T10:49:29;99530.31;;;21.44;30.02
74678;BME280;67324;56.326;43.982;2023-02-28T10:52:00;99529.34;;;21.45;30.06
74678;BME280;67324;56.326;43.982;2023-02-28T10:54:33;99519.78;;;21.44;30.10
74678;BME280;67324;56.326;43.982;2023-02-28T10:57:07;99516.53;;;21.42;30.05
74678;BME280;67324;56.326;43.982;2023-02-28T11:00:13;99496.69;;;21.39;30.08
74678;BME280;67324;56.326;43.982;2023-02-28T11:19:20;99479.72;;;21.71;29.69
74678;BME280;67324;56.326;43.982;2023-02-28T11:21:55;99479.63;;;21.65;29.74
74678;BME280;67324;56.326;43.982;2023-02-28T11:24:26;99482.00;;;21.60;29.75
74678;BME280;67324;56.326;43.982;2023-02-28T11:26:54;99469.19;;;21.57;29.84
74678;BME280;67324;56.326;43.982;2023-02-28T11:34:32;99481.44;;;21.49;29.89
74678;BME280;67324;56.326;43.982;2023-02-28T11:36:59;99478.00;;;21.49;29.87
74678;BME280;67324;56.326;43.982;2023-02-28T11:39:26;99480.97;;;21.46;29.83
74678;BME280;67324;56.326;43.982;2023-02-28T11:45:25;99479.50;;;21.43;29.81
74678;BME280;67324;56.326;43.982;2023-02-28T12:05:14;99461.16;;;21.35;29.92
74678;BME280;67324;56.326;43.982;2023-02-28T12:08:46;99459.53;;;21.34;29.92
74678;BME280;67324;56.326;43.982;2023-02-28T12:24:06;99425.69;;;21.31;30.03
74678;BME280;67324;56.326;43.982;2023-02-28T12:26:42;99425.69;;;21.31;29.92
74678;BME280;67324;56.326;43.982;2023-02-28T12:31:49;99418.78;;;21.30;29.98
74678;BME280;67324;56.326;43.982;2023-02-28T12:34:22;99415.34;;;21.29;29.97
74678;BME280;67324;56.326;43.982;2023-02-28T12:36:53;99408.28;;;21.30;30.06
74678;BME280;67324;56.326;43.982;2023-02-28T12:39:54;99393.47;;;21.29;30.08
74678;BME280;67324;56.326;43.982;2023-02-28T12:42:52;99389.06;;;21.29;29.90
74678;BME280;67324;56.326;43.982;2023-02-28T12:45:23;99382.13;;;21.28;29.93
74678;BME280;67324;56.326;43.982;2023-02-28T12:48:00;99373.44;;;21.28;30.01
74678;BME280;67324;56.326;43.982;2023-02-28T12:50:27;99373.44;;;21.28;29.93
74678;BME280;67324;56.326;43.982;2023-02-28T12:53:15;99377.91;;;21.27;29.99
74678;BME280;67324;56.326;43.982;2023-02-28T12:56:11;99366.56;;;21.27;30.01
74678;BME280;67324;56.326;43.982;2023-02-28T13:10:00;99374.44;;;21.27;30.08
74678;BME280;67324;56.326;43.982;2023-02-28T13:12:29;99367.38;;;21.27;30.01
74678;BME280;67324;56.326;43.982;2023-02-28T13:15:23;99352.41;;;21.28;29.97
74678;BME280;67324;56.326;43.982;2023-02-28T13:17:53;99362.09;;;21.27;29.93
74678;BME280;67324;56.326;43.982;2023-02-28T13:20:24;99362.91;;;21.28;29.96
74678;BME280;67324;56.326;43.982;2023-02-28T13:22:53;99369.81;;;21.29;30.07
74678;BME280;67324;56.326;43.982;2023-02-28T13:27:49;99369.00;;;21.28;29.98
74678;BME280;67324;56.326;43.982;2023-02-28T13:33:22;99362.91;;;21.28;30.05
74678;BME280;67324;56.326;43.982;2023-02-28T13:38:42;99346.31;;;21.27;30.03
74678;BME280;67324;56.326;43.982;2023-02-28T13:44:00;99345.53;;;21.27;29.97
74678;BME280;67324;56.326;43.982;2023-02-28T13:46:29;99357.03;;;21.26;29.97
74678;BME280;67324;56.326;43.982;2023-02-28T13:48:56;99346.31;;;21.27;29.97
74678;BME280;67324;56.326;43.982;2023-02-28T13:51:52;99338.59;;;21.26;30.10
74678;BME280;67324;56.326;43.982;2023-02-28T13:54:56;99338.59;;;21.26;30.11
74678;BME280;67324;56.326;43.982;2023-02-28T13:57:42;99341.25;;;21.26;29.90
74678;BME280;67324;56.326;43.982;2023-02-28T14:00:31;99331.72;;;21.25;30.03
74678;BME280;67324;56.326;43.982;2023-02-28T14:03:37;99333.34;;;21.26;30.12
74678;BME280;67324;56.326;43.982;2023-02-28T14:09:02;99329.28;;;21.23;30.00
74678;BME280;67324;56.326;43.982;2023-02-28T14:11:38;99324.81;;;21.24;30.03
74678;BME280;67324;56.326;43.982;2023-02-28T14:14:07;99325.81;;;21.23;30.03
74678;BME280;67324;56.326;43.982;2023-02-28T14:16:46;99330.06;;;21.24;30.02
74678;BME280;67324;56.326;43.982;2023-02-28T14:19:17;99316.94;;;21.24;30.00
74678;BME280;67324;56.326;43.982;2023-02-28T14:38:46;99316.31;;;21.22;30.01
74678;BME280;67324;56.326;43.982;2023-02-28T14:41:17;99311.06;;;21.22;29.95
74678;BME280;67324;56.326;43.982;2023-02-28T14:43:54;99313.69;;;21.22;29.96
74678;BME280;67324;56.326;43.982;2023-02-28T14:46:41;99312.84;;;21.21;30.05
74678;BME280;67324;56.326;43.982;2023-02-28T14:49:27;99297.06;;;21.21;30.04
74678;BME280;67324;56.326;43.982;2023-02-28T14:54:39;99295.47;;;21.20;30.06
74678;BME280;67324;56.326;43.982;2023-02-28T14:57:05;99300.72;;;21.20;29.96
74678;BME280;67324;56.326;43.982;2023-02-28T14:59:34;99297.28;;;21.20;30.02
74678;BME280;67324;56.326;43.982;2023-02-28T15:02:22;99293.63;;;21.21;30.14
74678;BME280;67324;56.326;43.982;2023-02-28T15:04:56;99288.38;;;21.21;29.99
74678;BME280;67324;56.326;43.982;2023-02-28T15:07:22;99292.81;;;21.20;30.05
74678;BME280;67324;56.326;43.982;2023-02-28T15:15:16;99283.31;;;21.19;30.02
74678;BME280;67324;56.326;43.982;2023-02-28T15:17:48;99284.13;;;21.20;30.04
74678;BME280;67324;56.326;43.982;2023-02-28T15:20:16;99283.47;;;21.18;30.07
74678;BME280;67324;56.326;43.982;2023-02-28T15:22:46;99275.59;;;21.18;30.06
74678;BME280;67324;56.326;43.982;2023-02-28T15:25:15;99279.84;;;21.19;30.05
74678;BME280;67324;56.326;43.982;2023-02-28T15:27:52;99284.28;;;21.18;30.05
74678;BME280;67324;56.326;43.982;2023-02-28T15:30:29;99280.69;;;21.19;30.03
74678;BME280;67324;56.326;43.982;2023-02-28T15:33:23;99276.41;;;21.18;30.03
74678;BME280;67324;56.326;43.982;2023-02-28T15:35:51;99274.78;;;21.17;30.11
74678;BME280;67324;56.326;43.982;2023-02-28T15:38:25;99269.53;;;21.17;30.03
74678;BME280;67324;56.326;43.982;2023-02-28T15:40:57;99272.97;;;21.18;29.98
74678;BME280;67324;56.326;43.982;2023-02-28T15:43:42;99275.59;;;21.18;30.04
74678;BME280;67324;56.326;43.982;2023-02-28T15:46:12;99265.25;;;21.16;30.09
74678;BME280;67324;56.326;43.982;2023-02-28T15:48:45;99267.72;;;21.18;30.06
74678;BME280;67324;56.326;43.982;2023-02-28T15:54:07;99260.00;;;21.16;29.97
74678;BME280;67324;56.326;43.982;2023-02-28T15:56:40;99253.91;;;21.16;29.96
74678;BME280;67324;56.326;43.982;2023-02-28T15:59:15;99250.31;;;21.17;30.07
74678;BME280;67324;56.326;43.982;2023-02-28T16:01:43;99251.28;;;21.16;30.03
74678;BME280;67324;56.326;43.982;2023-02-28T16:04:18;99248.88;;;21.14;30.01
74678;BME280;67324;56.326;43.982;2023-02-28T16:06:46;99245.22;;;21.15;30.11
74678;BME280;67324;56.326;43.982;2023-02-28T16:09:16;99243.59;;;21.14;30.03
74678;BME280;67324;56.326;43.982;2023-02-28T16:11:50;99232.06;;;21.15;29.99
74678;BME280;67324;56.326;43.982;2023-02-28T16:14:25;99230.25;;;21.16;30.15
74678;BME280;67324;56.326;43.982;2023-02-28T16:17:02;99233.09;;;21.14;30.06
74678;BME280;67324;56.326;43.982;2023-02-28T16:19:28;99230.63;;;21.13;30.05
74678;BME280;67324;56.326;43.982;2023-02-28T16:21:54;99225.19;;;21.14;30.05
74678;BME280;67324;56.326;43.982;2023-02-28T16:24:20;99225.19;;;21.14;30.07